sensor_id;sensor_type;location;lat;lon;timestamp;temperature;humidity
17341;DHT22;8788;49.930;8.660;2023-06-24T00:00:56;19.00;99.90
17341;DHT22;8788;49.930;8.660;2023-06-24T00:03:23;18.90;99.90
17341;DHT22;8788;49.930;8.660;2023-06-24T00:05:50;18.80;99.90
17341;DHT22;8788;49.930;8.660;2023-06-24T00:08:18;18.80;99.90
17341;DHT22;8788;49.930;8.660;2023-06-24T00:10:47;18.70;99.90
17341;DHT22;8788;49.930;8.660;2023-06-24T00:13:15;18.70;99.90
17341;DHT22;8788;49.930;8.660;2023-06-24T00:15:43;18.70;99.90
17341;DHT22;8788;49.930;8.660;2023-06-24T00:18:10;18.70;99.90
17341;DHT22;8788;49.930;8.660;2023-06-24T00:20:38;18.70;99.90
17341;DHT22;8788;49.930;8.660;2023-06-24T00:23:06;18.60;99.90
17341;DHT22;8788;49.930;8.660;2023-06-24T00:25:33;18.60;99.90
17341;DHT22;8788;49.930;8.660;2023-06-24T00:28:02;18.60;99.90
17341;DHT22;8788;49.930;8.660;2023-06-24T00:30:30;18.60;99.90
17341;DHT22;8788;49.930;8.660;2023-06-24T00:32:57;18.50;99.90
17341;DHT22;8788;49.930;8.660;2023-06-24T00:35:24;18.50;99.90
17341;DHT22;8788;49.930;8.660;2023-06-24T00:37:51;18.50;99.90
17341;DHT22;8788;49.930;8.660;2023-06-24T00:40:24;18.40;99.90
17341;DHT22;8788;49.930;8.660;2023-06-24T00:42:51;18.40;99.90
17341;DHT22;8788;49.930;8.660;2023-06-24T00:45:20;18.40;99.90
17341;DHT22;8788;49.930;8.660;2023-06-24T00:47:47;18.40;99.90
17341;DHT22;8788;49.930;8.660;2023-06-24T00:50:15;18.40;99.90
17341;DHT22;8788;49.930;8.660;2023-06-24T00:52:42;18.40;99.90
17341;DHT22;8788;49.930;8.660;2023-06-24T00:55:10;18.40;99.90
17341;DHT22;8788;49.930;8.660;2023-06-24T00:57:39;18.30;99.90
17341;DHT22;8788;49.930;8.660;2023-06-24T01:00:07;18.10;99.90
17341;DHT22;8788;49.930;8.660;2023-06-24T01:02:41;18.10;99.90
17341;DHT22;8788;49.930;8.660;2023-06-24T01:05:09;18.10;99.90
17341;DHT22;8788;49.930;8.660;2023-06-24T01:07:38;18.10;99.90
17341;DHT22;8788;49.930;8.660;2023-06-24T01:10:06;18.10;99.90
17341;DHT22;8788;49.930;8.660;2023-06-24T01:12:34;18.10;99.90
17341;DHT22;8788;49.930;8.660;2023-06-24T01:15:02;18.00;99.90
17341;DHT22;8788;49.930;8.660;2023-06-24T01:17:33;18.00;99.90
17341;DHT22;8788;49.930;8.660;2023-06-24T01:20:07;17.90;99.90
17341;DHT22;8788;49.930;8.660;2023-06-24T01:26:04;17.80;99.90
17341;DHT22;8788;49.930;8.660;2023-06-24T01:29:00;17.80;99.90
17341;DHT22;8788;49.930;8.660;2023-06-24T01:31:40;17.80;99.90
17341;DHT22;8788;49.930;8.660;2023-06-24T01:34:15;17.80;99.90
17341;DHT22;8788;49.930;8.660;2023-06-24T01:36:49;17.80;99.90
17341;DHT22;8788;49.930;8.660;2023-06-24T01:39:22;17.70;99.90
17341;DHT22;8788;49.930;8.660;2023-06-24T01:41:55;17.80;99.90
17341;DHT22;8788;49.930;8.660;2023-06-24T01:44:35;17.70;99.90
17341;DHT22;8788;49.930;8.660;2023-06-24T01:47:05;17.70;99.90
17341;DHT22;8788;49.930;8.660;2023-06-24T01:49:33;17.70;99.90
17341;DHT22;8788;49.930;8.660;2023-06-24T01:52:06;17.60;99.90
17341;DHT22;8788;49.930;8.660;2023-06-24T01:54:35;17.50;99.90
17341;DHT22;8788;49.930;8.660;2023-06-24T01:57:06;17.40;99.90
17341;DHT22;8788;49.930;8.660;2023-06-24T01:59:34;17.40;99.90
17341;DHT22;8788;49.930;8.660;2023-06-24T02:02:04;17.40;99.90
17341;DHT22;8788;49.930;8.660;2023-06-24T02:04:31;17.40;99.90
17341;DHT22;8788;49.930;8.660;2023-06-24T02:07:00;17.40;99.90
17341;DHT22;8788;49.930;8.660;2023-06-24T02:09:29;17.40;99.90
17341;DHT22;8788;49.930;8.660;2023-06-24T02:12:00;17.40;99.90
17341;DHT22;8788;49.930;8.660;2023-06-24T02:14:28;17.40;99.90
17341;DHT22;8788;49.930;8.660;2023-06-24T02:16:57;17.30;99.90
17341;DHT22;8788;49.930;8.660;2023-06-24T02:19:29;17.30;99.90
17341;DHT22;8788;49.930;8.660;2023-06-24T02:21:57;17.30;99.90
17341;DHT22;8788;49.930;8.660;2023-06-24T02:24:26;17.30;99.90
17341;DHT22;8788;49.930;8.660;2023-06-24T02:26:54;17.20;99.90
17341;DHT22;8788;49.930;8.660;2023-06-24T02:29:24;17.20;99.90
17341;DHT22;8788;49.930;8.660;2023-06-24T02:31:52;17.20;99.90
17341;DHT22;8788;49.930;8.660;2023-06-24T02:34:19;17.20;99.90
17341;DHT22;8788;49.930;8.660;2023-06-24T02:36:48;17.20;99.90
17341;DHT22;8788;49.930;8.660;2023-06-24T02:39:15;17.10;99.90
17341;DHT22;8788;49.930;8.660;2023-06-24T02:41:43;17.10;99.90
17341;DHT22;8788;49.930;8.660;2023-06-24T02:44:10;17.10;99.90
17341;DHT22;8788;49.930;8.660;2023-06-24T02:46:38;17.10;99.90
17341;DHT22;8788;49.930;8.660;2023-06-24T02:49:07;17.10;99.90
17341;DHT22;8788;49.930;8.660;2023-06-24T02:51:35;17.10;99.90
17341;DHT22;8788;49.930;8.660;2023-06-24T02:54:05;17.10;99.90
17341;DHT22;8788;49.930;8.660;2023-06-24T02:56:52;17.10;99.90
17341;DHT22;8788;49.930;8.660;2023-06-24T02:59:29;17.00;99.90
17341;DHT22;8788;49.930;8.660;2023-06-24T03:01:58;17.00;99.90
17341;DHT22;8788;49.930;8.660;2023-06-24T03:04:26;17.00;99.90
17341;DHT22;8788;49.930;8.660;2023-06-24T03:06:55;17.00;99.90
17341;DHT22;8788;49.930;8.660;2023-06-24T03:09:23;16.90;99.90
17341;DHT22;8788;49.930;8.660;2023-06-24T03:11:50;16.90;99.90
17341;DHT22;8788;49.930;8.660;2023-06-24T03:14:26;16.90;99.90
17341;DHT22;8788;49.930;8.660;2023-06-24T03:16:53;16.90;99.90
17341;DHT22;8788;49.930;8.660;2023-06-24T03:19:22;16.90;99.90
17341;DHT22;8788;49.930;8.660;2023-06-24T03:21:50;16.90;99.90
17341;DHT22;8788;49.930;8.660;2023-06-24T03:24:17;16.90;99.90
17341;DHT22;8788;49.930;8.660;2023-06-24T03:26:49;16.80;99.90
17341;DHT22;8788;49.930;8.660;2023-06-24T03:29:24;16.80;99.90
17341;DHT22;8788;49.930;8.660;2023-06-24T03:32:08;16.80;99.90
17341;DHT22;8788;49.930;8.660;2023-06-24T03:34:35;16.80;99.90
17341;DHT22;8788;49.930;8.660;2023-06-24T03:37:02;16.80;99.90
17341;DHT22;8788;49.930;8.660;2023-06-24T03:39:32;16.80;99.90
17341;DHT22;8788;49.930;8.660;2023-06-24T03:42:00;16.80;99.90
17341;DHT22;8788;49.930;8.660;2023-06-24T03:44:27;16.80;99.90
17341;DHT22;8788;49.930;8.660;2023-06-24T03:46:54;16.80;99.90
17341;DHT22;8788;49.930;8.660;2023-06-24T03:49:21;16.80;99.90
17341;DHT22;8788;49.930;8.660;2023-06-24T03:51:49;16.80;99.90
17341;DHT22;8788;49.930;8.660;2023-06-24T03:54:16;16.80;99.90
17341;DHT22;8788;49.930;8.660;2023-06-24T03:56:43;16.80;99.90
17341;DHT22;8788;49.930;8.660;2023-06-24T03:59:12;16.80;99.90
17341;DHT22;8788;49.930;8.660;2023-06-24T04:01:39;16.80;99.90
17341;DHT22;8788;49.930;8.660;2023-06-24T04:04:06;16.80;99.90
17341;DHT22;8788;49.930;8.660;2023-06-24T04:06:33;16.80;99.90
17341;DHT22;8788;49.930;8.660;2023-06-24T04:09:00;16.80;99.90
17341;DHT22;8788;49.930;8.660;2023-06-24T04:11:28;16.80;99.90
17341;DHT22;8788;49.930;8.660;2023-06-24T04:13:55;16.90;99.90
17341;DHT22;8788;49.930;8.660;2023-06-24T04:16:23;16.90;99.90
17341;DHT22;8788;49.930;8.660;2023-06-24T04:18:50;16.90;99.90
17341;DHT22;8788;49.930;8.660;2023-06-24T04:21:17;17.00;99.90
17341;DHT22;8788;49.930;8.660;2023-06-24T04:23:44;16.90;99.90
17341;DHT22;8788;49.930;8.660;2023-06-24T04:26:11;16.90;99.90
17341;DHT22;8788;49.930;8.660;2023-06-24T04:28:42;16.80;99.90
17341;DHT22;8788;49.930;8.660;2023-06-24T04:31:09;16.80;99.90
17341;DHT22;8788;49.930;8.660;2023-06-24T04:33:41;16.90;99.90
17341;DHT22;8788;49.930;8.660;2023-06-24T04:36:09;17.00;99.90
17341;DHT22;8788;49.930;8.660;2023-06-24T04:38:36;17.10;99.90
17341;DHT22;8788;49.930;8.660;2023-06-24T04:41:03;17.20;99.90
17341;DHT22;8788;49.930;8.660;2023-06-24T04:43:30;17.20;99.90
17341;DHT22;8788;49.930;8.660;2023-06-24T04:45:57;17.30;99.90
17341;DHT22;8788;49.930;8.660;2023-06-24T04:48:25;17.40;99.90
17341;DHT22;8788;49.930;8.660;2023-06-24T04:50:53;17.40;99.90
17341;DHT22;8788;49.930;8.660;2023-06-24T04:53:20;17.50;99.90
17341;DHT22;8788;49.930;8.660;2023-06-24T04:55:47;17.60;99.90
17341;DHT22;8788;49.930;8.660;2023-06-24T04:58:14;17.60;99.90
17341;DHT22;8788;49.930;8.660;2023-06-24T05:00:41;17.70;99.90
17341;DHT22;8788;49.930;8.660;2023-06-24T05:03:08;17.80;99.90
17341;DHT22;8788;49.930;8.660;2023-06-24T05:05:35;17.90;99.90
17341;DHT22;8788;49.930;8.660;2023-06-24T05:08:04;17.90;99.90
17341;DHT22;8788;49.930;8.660;2023-06-24T05:10:31;18.00;99.90
17341;DHT22;8788;49.930;8.660;2023-06-24T05:12:58;18.10;99.90
17341;DHT22;8788;49.930;8.660;2023-06-24T05:15:25;18.20;99.90
17341;DHT22;8788;49.930;8.660;2023-06-24T05:17:52;18.30;99.90
17341;DHT22;8788;49.930;8.660;2023-06-24T05:20:19;18.40;99.90
17341;DHT22;8788;49.930;8.660;2023-06-24T05:22:46;18.50;99.90
17341;DHT22;8788;49.930;8.660;2023-06-24T05:25:15;18.60;99.90
17341;DHT22;8788;49.930;8.660;2023-06-24T05:27:42;18.70;99.90
17341;DHT22;8788;49.930;8.660;2023-06-24T05:30:10;18.70;99.90
17341;DHT22;8788;49.930;8.660;2023-06-24T05:32:38;18.80;99.90
17341;DHT22;8788;49.930;8.660;2023-06-24T05:35:06;18.90;99.90
17341;DHT22;8788;49.930;8.660;2023-06-24T05:37:33;19.00;99.90
17341;DHT22;8788;49.930;8.660;2023-06-24T05:40:00;19.10;99.90
17341;DHT22;8788;49.930;8.660;2023-06-24T05:42:29;19.30;99.90
17341;DHT22;8788;49.930;8.660;2023-06-24T05:44:56;19.40;99.90
17341;DHT22;8788;49.930;8.660;2023-06-24T05:47:23;19.40;99.90
17341;DHT22;8788;49.930;8.660;2023-06-24T05:49:50;19.40;99.90
17341;DHT22;8788;49.930;8.660;2023-06-24T05:52:17;19.40;99.90
17341;DHT22;8788;49.930;8.660;2023-06-24T05:54:44;19.40;99.90
17341;DHT22;8788;49.930;8.660;2023-06-24T05:57:11;19.40;99.90
17341;DHT22;8788;49.930;8.660;2023-06-24T05:59:40;19.40;99.90
17341;DHT22;8788;49.930;8.660;2023-06-24T06:02:07;19.30;99.90
17341;DHT22;8788;49.930;8.660;2023-06-24T06:04:34;19.40;99.90
17341;DHT22;8788;49.930;8.660;2023-06-24T06:07:01;19.50;99.90
17341;DHT22;8788;49.930;8.660;2023-06-24T06:09:28;19.70;99.90
17341;DHT22;8788;49.930;8.660;2023-06-24T06:11:55;19.80;99.90
17341;DHT22;8788;49.930;8.660;2023-06-24T06:14:22;20.00;99.90
17341;DHT22;8788;49.930;8.660;2023-06-24T06:16:50;20.10;99.90
17341;DHT22;8788;49.930;8.660;2023-06-24T06:19:17;20.20;99.90
17341;DHT22;8788;49.930;8.660;2023-06-24T06:21:44;20.20;99.90
17341;DHT22;8788;49.930;8.660;2023-06-24T06:24:11;20.30;99.90
17341;DHT22;8788;49.930;8.660;2023-06-24T06:26:42;20.30;99.90
17341;DHT22;8788;49.930;8.660;2023-06-24T06:29:10;20.40;99.90
17341;DHT22;8788;49.930;8.660;2023-06-24T06:31:37;20.50;99.90
17341;DHT22;8788;49.930;8.660;2023-06-24T06:34:06;20.70;99.90
17341;DHT22;8788;49.930;8.660;2023-06-24T06:36:34;20.80;99.90
17341;DHT22;8788;49.930;8.660;2023-06-24T06:39:01;20.90;99.90
17341;DHT22;8788;49.930;8.660;2023-06-24T06:41:28;21.00;99.90
17341;DHT22;8788;49.930;8.660;2023-06-24T06:43:55;21.10;99.90
17341;DHT22;8788;49.930;8.660;2023-06-24T06:46:22;21.20;99.90
17341;DHT22;8788;49.930;8.660;2023-06-24T06:48:50;21.20;99.90
17341;DHT22;8788;49.930;8.660;2023-06-24T06:51:18;21.20;99.90
17341;DHT22;8788;49.930;8.660;2023-06-24T06:53:45;21.30;99.90
17341;DHT22;8788;49.930;8.660;2023-06-24T06:56:17;21.30;99.90
17341;DHT22;8788;49.930;8.660;2023-06-24T06:58:44;21.40;99.90
17341;DHT22;8788;49.930;8.660;2023-06-24T07:01:11;21.40;99.90
17341;DHT22;8788;49.930;8.660;2023-06-24T07:03:39;21.50;99.90
17341;DHT22;8788;49.930;8.660;2023-06-24T07:06:06;21.50;99.90
17341;DHT22;8788;49.930;8.660;2023-06-24T07:08:35;21.70;99.90
17341;DHT22;8788;49.930;8.660;2023-06-24T07:11:02;21.80;99.90
17341;DHT22;8788;49.930;8.660;2023-06-24T07:13:29;21.90;99.90
17341;DHT22;8788;49.930;8.660;2023-06-24T07:15:56;22.10;99.90
17341;DHT22;8788;49.930;8.660;2023-06-24T07:18:23;22.10;99.90
17341;DHT22;8788;49.930;8.660;2023-06-24T07:20:53;22.30;99.90
17341;DHT22;8788;49.930;8.660;2023-06-24T07:23:20;22.40;99.90
17341;DHT22;8788;49.930;8.660;2023-06-24T07:25:49;22.40;99.90
17341;DHT22;8788;49.930;8.660;2023-06-24T07:28:16;22.50;99.90
17341;DHT22;8788;49.930;8.660;2023-06-24T07:30:43;22.60;99.90
17341;DHT22;8788;49.930;8.660;2023-06-24T07:33:10;22.60;99.90
17341;DHT22;8788;49.930;8.660;2023-06-24T07:35:37;22.70;99.90
17341;DHT22;8788;49.930;8.660;2023-06-24T07:38:04;22.70;99.90
17341;DHT22;8788;49.930;8.660;2023-06-24T07:40:31;22.70;99.90
17341;DHT22;8788;49.930;8.660;2023-06-24T07:43:00;22.80;99.90
17341;DHT22;8788;49.930;8.660;2023-06-24T07:45:27;22.80;99.90
17341;DHT22;8788;49.930;8.660;2023-06-24T07:47:54;22.90;99.90
17341;DHT22;8788;49.930;8.660;2023-06-24T07:50:21;23.00;99.90
17341;DHT22;8788;49.930;8.660;2023-06-24T07:52:48;23.10;99.90
17341;DHT22;8788;49.930;8.660;2023-06-24T07:55:15;23.10;99.90
17341;DHT22;8788;49.930;8.660;2023-06-24T07:57:45;23.20;99.90
17341;DHT22;8788;49.930;8.660;2023-06-24T08:00:15;23.30;99.90
17341;DHT22;8788;49.930;8.660;2023-06-24T08:02:43;23.30;99.90
17341;DHT22;8788;49.930;8.660;2023-06-24T08:05:10;23.30;99.90
17341;DHT22;8788;49.930;8.660;2023-06-24T08:07:37;23.50;99.90
17341;DHT22;8788;49.930;8.660;2023-06-24T08:10:05;23.60;99.90
17341;DHT22;8788;49.930;8.660;2023-06-24T08:12:33;23.70;99.90
17341;DHT22;8788;49.930;8.660;2023-06-24T08:15:00;23.70;99.90
17341;DHT22;8788;49.930;8.660;2023-06-24T08:17:28;23.70;99.90
17341;DHT22;8788;49.930;8.660;2023-06-24T08:19:55;23.80;99.90
17341;DHT22;8788;49.930;8.660;2023-06-24T08:22:22;23.80;99.90
17341;DHT22;8788;49.930;8.660;2023-06-24T08:24:49;23.90;99.90
17341;DHT22;8788;49.930;8.660;2023-06-24T08:27:16;24.00;99.90
17341;DHT22;8788;49.930;8.660;2023-06-24T08:29:43;24.00;99.90
17341;DHT22;8788;49.930;8.660;2023-06-24T08:32:10;24.10;99.90
17341;DHT22;8788;49.930;8.660;2023-06-24T08:34:39;24.20;99.90
17341;DHT22;8788;49.930;8.660;2023-06-24T08:37:06;24.30;99.90
17341;DHT22;8788;49.930;8.660;2023-06-24T08:39:33;24.40;99.90
17341;DHT22;8788;49.930;8.660;2023-06-24T08:42:00;24.50;99.90
17341;DHT22;8788;49.930;8.660;2023-06-24T08:44:27;24.60;99.90
17341;DHT22;8788;49.930;8.660;2023-06-24T08:46:54;24.70;99.90
17341;DHT22;8788;49.930;8.660;2023-06-24T08:49:28;24.70;99.90
17341;DHT22;8788;49.930;8.660;2023-06-24T08:52:02;24.70;99.90
17341;DHT22;8788;49.930;8.660;2023-06-24T08:54:30;24.60;99.90
17341;DHT22;8788;49.930;8.660;2023-06-24T08:57:01;24.80;99.90
17341;DHT22;8788;49.930;8.660;2023-06-24T08:59:31;24.90;99.90
17341;DHT22;8788;49.930;8.660;2023-06-24T09:01:58;25.00;99.50
17341;DHT22;8788;49.930;8.660;2023-06-24T09:04:25;25.10;99.00
17341;DHT22;8788;49.930;8.660;2023-06-24T09:06:52;25.10;98.90
17341;DHT22;8788;49.930;8.660;2023-06-24T09:09:21;25.10;98.50
17341;DHT22;8788;49.930;8.660;2023-06-24T09:11:51;25.20;98.60
17341;DHT22;8788;49.930;8.660;2023-06-24T09:14:19;25.30;98.60
17341;DHT22;8788;49.930;8.660;2023-06-24T09:16:52;25.50;98.60
17341;DHT22;8788;49.930;8.660;2023-06-24T09:19:21;25.70;98.10
17341;DHT22;8788;49.930;8.660;2023-06-24T09:21:48;25.70;97.70
17341;DHT22;8788;49.930;8.660;2023-06-24T09:24:17;25.70;97.60
17341;DHT22;8788;49.930;8.660;2023-06-24T09:26:46;25.70;96.60
17341;DHT22;8788;49.930;8.660;2023-06-24T09:29:13;25.70;96.00
17341;DHT22;8788;49.930;8.660;2023-06-24T09:31:48;25.70;95.40
17341;DHT22;8788;49.930;8.660;2023-06-24T09:34:16;25.80;95.00
17341;DHT22;8788;49.930;8.660;2023-06-24T09:36:44;25.90;94.90
17341;DHT22;8788;49.930;8.660;2023-06-24T09:39:11;25.90;94.90
17341;DHT22;8788;49.930;8.660;2023-06-24T09:41:41;25.90;94.90
17341;DHT22;8788;49.930;8.660;2023-06-24T09:44:11;26.10;94.60
17341;DHT22;8788;49.930;8.660;2023-06-24T09:46:38;26.10;94.50
17341;DHT22;8788;49.930;8.660;2023-06-24T09:49:05;26.20;94.30
17341;DHT22;8788;49.930;8.660;2023-06-24T09:51:35;26.30;94.20
17341;DHT22;8788;49.930;8.660;2023-06-24T09:54:06;26.40;93.80
17341;DHT22;8788;49.930;8.660;2023-06-24T09:56:35;26.40;93.80
17341;DHT22;8788;49.930;8.660;2023-06-24T09:59:04;26.60;93.40
17341;DHT22;8788;49.930;8.660;2023-06-24T10:01:36;26.60;93.20
17341;DHT22;8788;49.930;8.660;2023-06-24T10:04:06;26.70;93.10
17341;DHT22;8788;49.930;8.660;2023-06-24T10:06:33;26.70;92.50
17341;DHT22;8788;49.930;8.660;2023-06-24T10:09:01;26.60;92.10
17341;DHT22;8788;49.930;8.660;2023-06-24T10:11:28;26.60;92.40
17341;DHT22;8788;49.930;8.660;2023-06-24T10:13:55;26.70;92.70
17341;DHT22;8788;49.930;8.660;2023-06-24T10:16:23;26.90;92.40
17341;DHT22;8788;49.930;8.660;2023-06-24T10:18:51;27.00;92.00
17341;DHT22;8788;49.930;8.660;2023-06-24T10:21:18;27.10;92.00
17341;DHT22;8788;49.930;8.660;2023-06-24T10:23:52;27.10;91.10
17341;DHT22;8788;49.930;8.660;2023-06-24T10:26:26;27.10;91.10
17341;DHT22;8788;49.930;8.660;2023-06-24T10:29:10;27.20;91.00
17341;DHT22;8788;49.930;8.660;2023-06-24T10:31:53;27.40;91.10
17341;DHT22;8788;49.930;8.660;2023-06-24T10:34:40;27.60;91.00
17341;DHT22;8788;49.930;8.660;2023-06-24T10:37:12;27.70;90.40
17341;DHT22;8788;49.930;8.660;2023-06-24T10:39:47;27.80;90.10
17341;DHT22;8788;49.930;8.660;2023-06-24T10:42:26;27.90;89.60
17341;DHT22;8788;49.930;8.660;2023-06-24T10:44:54;28.00;88.80
17341;DHT22;8788;49.930;8.660;2023-06-24T10:47:22;28.10;87.20
17341;DHT22;8788;49.930;8.660;2023-06-24T10:49:51;28.10;86.10
17341;DHT22;8788;49.930;8.660;2023-06-24T10:52:19;28.20;83.70
17341;DHT22;8788;49.930;8.660;2023-06-24T10:54:47;28.20;82.50
17341;DHT22;8788;49.930;8.660;2023-06-24T10:57:14;28.10;82.80
17341;DHT22;8788;49.930;8.660;2023-06-24T10:59:42;28.20;82.50
17341;DHT22;8788;49.930;8.660;2023-06-24T11:02:14;28.30;81.90
17341;DHT22;8788;49.930;8.660;2023-06-24T11:04:44;28.40;82.30
17341;DHT22;8788;49.930;8.660;2023-06-24T11:07:13;28.60;82.30
17341;DHT22;8788;49.930;8.660;2023-06-24T11:09:41;28.80;82.70
17341;DHT22;8788;49.930;8.660;2023-06-24T11:12:09;29.00;83.00
17341;DHT22;8788;49.930;8.660;2023-06-24T11:14:38;29.10;82.50
17341;DHT22;8788;49.930;8.660;2023-06-24T11:17:06;29.20;82.30
17341;DHT22;8788;49.930;8.660;2023-06-24T11:19:33;29.30;81.60
17341;DHT22;8788;49.930;8.660;2023-06-24T11:22:05;29.40;80.10
17341;DHT22;8788;49.930;8.660;2023-06-24T11:24:34;29.40;79.70
17341;DHT22;8788;49.930;8.660;2023-06-24T11:27:02;29.50;80.10
17341;DHT22;8788;49.930;8.660;2023-06-24T11:29:32;29.50;78.70
17341;DHT22;8788;49.930;8.660;2023-06-24T11:32:00;29.60;77.60
17341;DHT22;8788;49.930;8.660;2023-06-24T11:34:27;29.50;76.60
17341;DHT22;8788;49.930;8.660;2023-06-24T11:36:54;29.50;76.20
17341;DHT22;8788;49.930;8.660;2023-06-24T11:39:22;29.50;76.20
17341;DHT22;8788;49.930;8.660;2023-06-24T11:41:51;29.70;76.90
17341;DHT22;8788;49.930;8.660;2023-06-24T11:44:19;29.90;76.90
17341;DHT22;8788;49.930;8.660;2023-06-24T11:46:47;29.90;74.30
17341;DHT22;8788;49.930;8.660;2023-06-24T11:49:14;29.80;74.70
17341;DHT22;8788;49.930;8.660;2023-06-24T11:51:49;29.80;74.60
17341;DHT22;8788;49.930;8.660;2023-06-24T11:54:20;30.00;74.30
17341;DHT22;8788;49.930;8.660;2023-06-24T11:56:51;30.00;73.80
17341;DHT22;8788;49.930;8.660;2023-06-24T11:59:19;29.90;73.60
17341;DHT22;8788;49.930;8.660;2023-06-24T12:01:52;29.70;73.80
17341;DHT22;8788;49.930;8.660;2023-06-24T12:04:20;29.50;73.20
17341;DHT22;8788;49.930;8.660;2023-06-24T12:06:47;29.30;73.10
17341;DHT22;8788;49.930;8.660;2023-06-24T12:09:14;29.20;73.50
17341;DHT22;8788;49.930;8.660;2023-06-24T12:11:42;29.10;73.80
17341;DHT22;8788;49.930;8.660;2023-06-24T12:14:10;29.00;73.50
17341;DHT22;8788;49.930;8.660;2023-06-24T12:16:39;28.90;73.10
17341;DHT22;8788;49.930;8.660;2023-06-24T12:19:06;28.80;73.60
17341;DHT22;8788;49.930;8.660;2023-06-24T12:21:33;28.80;73.50
17341;DHT22;8788;49.930;8.660;2023-06-24T12:24:00;28.80;74.40
17341;DHT22;8788;49.930;8.660;2023-06-24T12:26:27;28.80;74.60
17341;DHT22;8788;49.930;8.660;2023-06-24T12:28:55;28.90;74.90
17341;DHT22;8788;49.930;8.660;2023-06-24T12:31:24;29.00;74.50
17341;DHT22;8788;49.930;8.660;2023-06-24T12:33:51;29.30;74.90
17341;DHT22;8788;49.930;8.660;2023-06-24T12:36:18;29.60;74.50
17341;DHT22;8788;49.930;8.660;2023-06-24T12:38:45;29.50;72.00
17341;DHT22;8788;49.930;8.660;2023-06-24T12:41:12;29.40;73.20
17341;DHT22;8788;49.930;8.660;2023-06-24T12:43:40;29.50;74.10
17341;DHT22;8788;49.930;8.660;2023-06-24T12:46:07;29.80;72.50
17341;DHT22;8788;49.930;8.660;2023-06-24T12:48:35;30.00;72.10
17341;DHT22;8788;49.930;8.660;2023-06-24T12:51:02;30.10;70.70
17341;DHT22;8788;49.930;8.660;2023-06-24T12:53:29;30.20;70.50
17341;DHT22;8788;49.930;8.660;2023-06-24T12:55:56;30.40;70.30
17341;DHT22;8788;49.930;8.660;2023-06-24T12:58:24;30.50;70.50
17341;DHT22;8788;49.930;8.660;2023-06-24T13:00:52;30.70;70.90
17341;DHT22;8788;49.930;8.660;2023-06-24T13:03:19;30.80;69.40
17341;DHT22;8788;49.930;8.660;2023-06-24T13:05:47;30.80;69.10
17341;DHT22;8788;49.930;8.660;2023-06-24T13:08:14;30.90;68.30
17341;DHT22;8788;49.930;8.660;2023-06-24T13:10:41;31.00;67.40
17341;DHT22;8788;49.930;8.660;2023-06-24T13:13:08;31.00;67.30
17341;DHT22;8788;49.930;8.660;2023-06-24T13:15:36;31.10;66.80
17341;DHT22;8788;49.930;8.660;2023-06-24T13:18:03;31.10;65.30
17341;DHT22;8788;49.930;8.660;2023-06-24T13:20:30;30.90;65.00
17341;DHT22;8788;49.930;8.660;2023-06-24T13:22:59;30.90;65.30
17341;DHT22;8788;49.930;8.660;2023-06-24T13:25:26;31.00;65.40
17341;DHT22;8788;49.930;8.660;2023-06-24T13:27:53;31.10;65.20
17341;DHT22;8788;49.930;8.660;2023-06-24T13:30:20;31.20;63.80
17341;DHT22;8788;49.930;8.660;2023-06-24T13:32:47;31.10;63.80
17341;DHT22;8788;49.930;8.660;2023-06-24T13:35:15;31.10;63.10
17341;DHT22;8788;49.930;8.660;2023-06-24T13:37:42;31.30;63.20
17341;DHT22;8788;49.930;8.660;2023-06-24T13:40:11;31.20;62.70
17341;DHT22;8788;49.930;8.660;2023-06-24T13:42:39;31.20;62.90
17341;DHT22;8788;49.930;8.660;2023-06-24T13:45:06;31.30;61.90
17341;DHT22;8788;49.930;8.660;2023-06-24T13:47:33;31.20;62.00
17341;DHT22;8788;49.930;8.660;2023-06-24T13:50:00;31.20;62.90
17341;DHT22;8788;49.930;8.660;2023-06-24T13:52:28;31.00;62.40
17341;DHT22;8788;49.930;8.660;2023-06-24T13:54:55;30.90;62.60
17341;DHT22;8788;49.930;8.660;2023-06-24T13:57:23;30.90;63.20
17341;DHT22;8788;49.930;8.660;2023-06-24T13:59:50;30.90;63.70
17341;DHT22;8788;49.930;8.660;2023-06-24T14:02:17;30.90;63.40
17341;DHT22;8788;49.930;8.660;2023-06-24T14:04:45;30.90;63.30
17341;DHT22;8788;49.930;8.660;2023-06-24T14:07:13;31.00;63.30
17341;DHT22;8788;49.930;8.660;2023-06-24T14:09:40;31.10;63.30
17341;DHT22;8788;49.930;8.660;2023-06-24T14:12:08;31.10;63.30
17341;DHT22;8788;49.930;8.660;2023-06-24T14:14:37;31.00;61.90
17341;DHT22;8788;49.930;8.660;2023-06-24T14:17:05;30.80;62.30
17341;DHT22;8788;49.930;8.660;2023-06-24T14:19:36;30.90;63.00
17341;DHT22;8788;49.930;8.660;2023-06-24T14:22:03;30.90;63.50
17341;DHT22;8788;49.930;8.660;2023-06-24T14:24:31;30.90;63.50
17341;DHT22;8788;49.930;8.660;2023-06-24T14:26:58;31.10;63.70
17341;DHT22;8788;49.930;8.660;2023-06-24T14:29:26;31.40;64.20
17341;DHT22;8788;49.930;8.660;2023-06-24T14:31:54;31.70;64.40
17341;DHT22;8788;49.930;8.660;2023-06-24T14:34:21;31.90;63.00
17341;DHT22;8788;49.930;8.660;2023-06-24T14:36:48;31.80;59.50
17341;DHT22;8788;49.930;8.660;2023-06-24T14:39:16;31.50;60.90
17341;DHT22;8788;49.930;8.660;2023-06-24T14:41:43;31.40;61.70
17341;DHT22;8788;49.930;8.660;2023-06-24T14:44:10;31.20;61.30
17341;DHT22;8788;49.930;8.660;2023-06-24T14:46:38;31.00;61.30
17341;DHT22;8788;49.930;8.660;2023-06-24T14:49:06;30.80;61.40
17341;DHT22;8788;49.930;8.660;2023-06-24T14:51:33;30.70;61.80
17341;DHT22;8788;49.930;8.660;2023-06-24T14:54:00;30.60;62.30
17341;DHT22;8788;49.930;8.660;2023-06-24T14:56:27;30.80;62.40
17341;DHT22;8788;49.930;8.660;2023-06-24T14:58:54;31.00;62.30
17341;DHT22;8788;49.930;8.660;2023-06-24T15:01:21;31.00;62.30
17341;DHT22;8788;49.930;8.660;2023-06-24T15:03:48;31.00;61.90
17341;DHT22;8788;49.930;8.660;2023-06-24T15:06:17;31.00;61.50
17341;DHT22;8788;49.930;8.660;2023-06-24T15:08:44;30.90;61.80
17341;DHT22;8788;49.930;8.660;2023-06-24T15:11:11;30.80;62.30
17341;DHT22;8788;49.930;8.660;2023-06-24T15:13:38;30.70;62.20
17341;DHT22;8788;49.930;8.660;2023-06-24T15:16:05;30.60;62.00
17341;DHT22;8788;49.930;8.660;2023-06-24T15:18:32;30.60;62.50
17341;DHT22;8788;49.930;8.660;2023-06-24T15:20:59;30.80;63.30
17341;DHT22;8788;49.930;8.660;2023-06-24T15:23:27;31.00;63.70
17341;DHT22;8788;49.930;8.660;2023-06-24T15:25:54;31.30;63.50
17341;DHT22;8788;49.930;8.660;2023-06-24T15:28:21;31.50;62.60
17341;DHT22;8788;49.930;8.660;2023-06-24T15:30:48;31.50;62.40
17341;DHT22;8788;49.930;8.660;2023-06-24T15:33:16;31.60;61.90
17341;DHT22;8788;49.930;8.660;2023-06-24T15:35:43;31.50;61.70
17341;DHT22;8788;49.930;8.660;2023-06-24T15:38:10;31.20;61.40
17341;DHT22;8788;49.930;8.660;2023-06-24T15:40:39;31.00;61.00
17341;DHT22;8788;49.930;8.660;2023-06-24T15:43:08;31.10;60.90
17341;DHT22;8788;49.930;8.660;2023-06-24T15:45:37;31.20;60.80
17341;DHT22;8788;49.930;8.660;2023-06-24T15:48:04;31.30;60.70
17341;DHT22;8788;49.930;8.660;2023-06-24T15:50:31;31.50;60.20
17341;DHT22;8788;49.930;8.660;2023-06-24T15:52:58;31.50;59.40
17341;DHT22;8788;49.930;8.660;2023-06-24T15:55:25;31.40;59.30